Time;durP1;ratioP1;P1;durP2;ratioP2;P2;SDS_P1;SDS_P2;PMS_P1;PMS_P2;Temp;Humidity;BMP_temperature;BMP_pressure;BME280_temperature;BME280_humidity;BME280_pressure;Samples;Min_cycle;Max_cycle;Signal;HPM_P1;HPM_P2
2023/04/04 00:01:52;;;;;;;7.28;1.50;;;;;;;14.98;36.63;95557.38;5048349;28;20049;-29
2023/04/04 00:04:17;;;;;;;4.05;1.20;;;;;;;14.89;36.35;95560.22;5041489;28;20037;-29
2023/04/04 00:06:44;;;;;;;2.42;1.00;;;;;;;14.84;36.90;95566.34;5048653;28;20028;-29
2023/04/04 00:09:11;;;;;;;3.13;1.27;;;;;;;14.79;36.74;95577.97;5043551;28;20033;-29
2023/04/04 00:11:37;;;;;;;3.50;1.20;;;;;;;14.86;36.56;95572.09;5048850;28;20021;-30
2023/04/04 00:14:04;;;;;;;6.90;1.30;;;;;;;14.62;37.21;95556.63;5049875;28;20476;-29
2023/04/04 00:16:29;;;;;;;4.80;1.02;;;;;;;14.97;36.56;95558.59;5050252;28;20091;-30
2023/04/04 00:18:55;;;;;;;4.55;1.20;;;;;;;14.90;36.56;95556.28;5047313;28;20028;-30
2023/04/04 00:21:22;;;;;;;5.68;1.13;;;;;;;14.80;36.41;95558.38;5050083;28;20431;-29
2023/04/04 00:23:48;;;;;;;4.55;1.20;;;;;;;14.66;36.30;95556.44;5048987;28;20479;-29
2023/04/04 00:26:13;;;;;;;2.80;0.90;;;;;;;14.72;36.22;95568.16;5045845;28;20024;-29
2023/04/04 00:28:39;;;;;;;2.70;0.93;;;;;;;14.78;36.17;95560.06;5031698;28;20025;-29
2023/04/04 00:31:05;;;;;;;6.47;1.25;;;;;;;14.73;36.56;95569.69;5047054;28;20017;-29
2023/04/04 00:33:30;;;;;;;1.90;0.80;;;;;;;14.69;36.46;95561.72;5049894;28;20025;-29
2023/04/04 00:35:55;;;;;;;5.28;1.20;;;;;;;14.69;36.37;95563.69;5049751;28;20021;-29
2023/04/04 00:38:21;;;;;;;6.70;1.30;;;;;;;14.67;36.59;95577.78;5048326;28;20033;-31
2023/04/04 00:40:51;;;;;;;3.53;0.95;;;;;;;14.48;36.54;95562.09;5050108;28;20380;-29
2023/04/04 00:43:17;;;;;;;5.10;1.30;;;;;;;14.48;36.65;95571.03;5048259;28;20021;-29
2023/04/04 00:45:43;;;;;;;4.70;1.20;;;;;;;14.65;36.59;95577.50;5042511;28;20032;-29
2023/04/04 00:48:08;;;;;;;3.58;1.52;;;;;;;14.69;36.31;95578.09;5049730;28;20013;-29
2023/04/04 00:50:34;;;;;;;3.25;0.90;;;;;;;14.59;36.45;95573.19;5041573;28;20021;-29
2023/04/04 00:52:59;;;;;;;3.45;1.05;;;;;;;14.53;36.58;95567.66;5049538;28;20033;-29
2023/04/04 00:55:26;;;;;;;2.40;0.88;;;;;;;14.69;36.63;95569.13;5048313;28;20025;-30
2023/04/04 00:57:51;;;;;;;6.72;1.40;;;;;;;14.74;36.64;95566.47;5053519;28;20017;-29
2023/04/04 01:00:17;;;;;;;3.55;1.33;;;;;;;14.85;36.32;95562.41;5053366;28;20086;-29
2023/04/04 01:02:43;;;;;;;5.50;1.48;;;;;;;14.77;36.72;95566.75;5042903;28;20025;-29
2023/04/04 01:05:09;;;;;;;3.05;1.33;;;;;;;14.54;37.00;95573.88;5047931;28;20021;-31
2023/04/04 01:07:35;;;;;;;2.83;1.25;;;;;;;14.44;37.31;95556.09;5052175;28;20021;-31
2023/04/04 01:10:02;;;;;;;3.95;1.30;;;;;;;14.73;37.06;95558.75;5045900;28;20020;-29
2023/04/04 01:12:29;;;;;;;5.68;1.45;;;;;;;14.79;36.59;95561.59;5042177;28;20031;-29
2023/04/04 01:14:54;;;;;;;4.70;1.27;;;;;;;14.77;36.72;95548.41;5050465;28;20060;-29
2023/04/04 01:17:21;;;;;;;5.63;1.10;;;;;;;14.59;36.78;95546.66;5053250;28;20053;-29
2023/04/04 01:20:06;;;;;;;3.03;0.75;;;;;;;14.58;36.86;95567.00;5051738;28;20029;-29
2023/04/04 01:22:34;;;;;;;5.40;1.50;;;;;;;14.52;36.30;95554.47;5043985;28;20029;-30
2023/04/04 01:25:01;;;;;;;5.15;1.10;;;;;;;14.42;36.97;95547.63;5051592;28;20033;-29
2023/04/04 01:27:26;;;;;;;3.55;1.35;;;;;;;14.78;36.43;95551.88;5045608;28;20025;-30
2023/04/04 01:29:52;;;;;;;4.00;1.10;;;;;;;14.53;36.58;95551.28;5051991;28;20439;-29
2023/04/04 01:32:22;;;;;;;3.80;1.00;;;;;;;14.63;36.13;95552.66;5052001;28;20465;-29
2023/04/04 01:35:07;;;;;;;4.53;1.05;;;;;;;14.57;36.64;95553.81;5052725;28;20049;-28
2023/04/04 01:38:01;;;;;;;4.53;1.67;;;;;;;14.57;36.81;95557.31;5039662;28;20025;-30
2023/04/04 01:40:33;;;;;;;5.07;1.10;;;;;;;14.59;36.62;95560.28;5051708;28;20075;-29
2023/04/04 01:42:59;;;;;;;6.15;0.98;;;;;;;14.59;36.72;95565.00;5052694;28;20457;-28
2023/04/04 01:45:27;;;;;;;6.35;1.13;;;;;;;14.60;36.50;95556.34;5044139;28;20119;-29
2023/04/04 01:47:52;;;;;;;3.38;0.95;;;;;;;14.60;35.94;95555.59;5051071;28;20403;-29
2023/04/04 01:50:18;;;;;;;4.72;1.10;;;;;;;14.54;36.49;95552.78;5051307;28;20028;-30
2023/04/04 01:52:43;;;;;;;3.22;0.98;;;;;;;14.44;36.40;95554.13;5037859;28;20036;-30
2023/04/04 01:55:09;;;;;;;4.15;1.52;;;;;;;14.60;36.31;95566.50;5052598;28;20024;-29
2023/04/04 01:57:34;;;;;;;4.97;0.98;;;;;;;14.28;36.51;95568.97;5050580;28;20032;-29
2023/04/04 02:00:00;;;;;;;4.55;1.17;;;;;;;14.47;36.52;95574.22;5052394;28;20078;-29
2023/04/04 02:02:26;;;;;;;5.75;1.35;;;;;;;14.33;36.79;95570.28;5051522;28;20032;-29
2023/04/04 02:04:51;;;;;;;3.17;1.20;;;;;;;14.34;36.35;95569.78;5051064;28;20024;-29
2023/04/04 02:07:17;;;;;;;5.38;1.23;;;;;;;14.51;36.35;95559.19;5051900;28;20100;-30
2023/04/04 02:09:42;;;;;;;2.95;1.17;;;;;;;14.46;35.76;95570.78;5050767;28;20027;-29
2023/04/04 02:12:08;;;;;;;6.03;1.20;;;;;;;14.36;36.08;95563.88;5051829;28;20044;-29
2023/04/04 02:14:34;;;;;;;6.63;1.35;;;;;;;14.43;35.81;95560.06;5050836;28;20025;-29
2023/04/04 02:17:00;;;;;;;4.95;1.10;;;;;;;14.43;35.74;95562.78;5050651;28;20029;-29
2023/04/04 02:19:26;;;;;;;3.28;1.25;;;;;;;14.25;35.55;95559.00;5052310;28;20112;-29
2023/04/04 02:21:51;;;;;;;4.50;1.40;;;;;;;14.37;35.90;95554.47;5043163;28;20026;-29
2023/04/04 02:24:16;;;;;;;6.20;1.38;;;;;;;14.25;36.08;95555.50;5051906;28;20368;-29
2023/04/04 02:26:42;;;;;;;5.15;1.15;;;;;;;14.36;35.63;95556.44;5045232;28;20071;-30
2023/04/04 02:29:07;;;;;;;3.88;1.17;;;;;;;14.30;35.81;95552.13;5049427;28;20063;-30
2023/04/04 02:31:33;;;;;;;6.13;1.33;;;;;;;14.26;35.41;95557.00;5051808;28;20021;-29
2023/04/04 02:33:59;;;;;;;4.32;1.23;;;;;;;14.29;36.03;95554.09;5044549;28;20042;-30
2023/04/04 02:36:24;;;;;;;8.40;1.35;;;;;;;14.34;36.12;95549.97;5051118;28;20033;-29
2023/04/04 02:38:50;;;;;;;5.13;1.50;;;;;;;14.27;36.26;95562.00;5051636;28;20022;-29
2023/04/04 02:41:15;;;;;;;5.45;1.30;;;;;;;14.21;36.69;95565.88;5050268;28;20100;-29
2023/04/04 02:43:41;;;;;;;7.00;1.70;;;;;;;14.04;36.58;95554.69;5051443;28;20048;-29
2023/04/04 02:46:06;;;;;;;5.53;1.30;;;;;;;14.12;36.59;95550.34;5044030;28;20058;-29
2023/04/04 02:48:32;;;;;;;3.80;1.30;;;;;;;14.28;36.13;95551.84;5050212;28;20955;-30
2023/04/04 02:50:58;;;;;;;4.38;1.17;;;;;;;14.17;36.34;95551.66;5044440;28;20032;-29
2023/04/04 02:53:23;;;;;;;9.05;1.60;;;;;;;14.03;36.44;95555.91;5049870;28;20021;-29
2023/04/04 02:55:48;;;;;;;5.97;1.60;;;;;;;14.10;36.42;95565.66;5051231;28;20025;-29
2023/04/04 02:58:14;;;;;;;4.30;1.70;;;;;;;13.99;36.77;95568.94;5050885;28;20021;-29
2023/04/04 03:00:39;;;;;;;6.30;1.30;;;;;;;13.97;36.56;95563.97;5048892;28;20124;-28
2023/04/04 03:03:05;;;;;;;5.88;1.67;;;;;;;13.95;36.90;95574.59;5046263;28;20052;-31
2023/04/04 03:05:31;;;;;;;7.47;1.70;;;;;;;14.02;36.51;95563.31;5037514;28;20017;-28
2023/04/04 03:07:57;;;;;;;5.07;1.50;;;;;;;13.98;36.66;95562.75;5048704;28;20021;-29
2023/04/04 03:10:24;;;;;;;5.53;1.58;;;;;;;14.08;36.63;95560.69;5046701;28;20025;-30
2023/04/04 03:12:50;;;;;;;7.25;1.63;;;;;;;14.19;36.09;95560.13;5049721;28;20033;-29
2023/04/04 03:15:16;;;;;;;4.50;1.20;;;;;;;13.98;36.28;95551.84;5051166;28;20027;-29
2023/04/04 03:17:42;;;;;;;4.28;1.30;;;;;;;13.83;36.69;95551.09;5049754;28;20060;-29
2023/04/04 03:20:07;;;;;;;5.93;1.55;;;;;;;13.90;36.53;95567.06;5049071;28;20100;-29
2023/04/04 03:22:33;;;;;;;6.10;2.08;;;;;;;14.02;36.38;95536.06;5050542;28;20444;-29
2023/04/04 03:24:58;;;;;;;3.80;1.35;;;;;;;13.91;36.57;95549.50;5049447;28;20507;-30
2023/04/04 03:27:24;;;;;;;7.05;2.40;;;;;;;13.88;36.74;95553.16;5043259;28;20024;-29
2023/04/04 03:29:50;;;;;;;8.88;2.15;;;;;;;14.13;36.37;95553.81;5050699;28;20028;-31
2023/04/04 03:32:17;;;;;;;5.93;1.65;;;;;;;13.88;36.95;95557.84;5049147;28;20039;-31
2023/04/04 03:34:42;;;;;;;8.52;2.13;;;;;;;13.94;36.45;95554.03;5050123;28;20025;-30
2023/04/04 03:37:08;;;;;;;6.80;1.67;;;;;;;14.03;36.39;95553.16;5048914;28;20468;-31
2023/04/04 03:39:33;;;;;;;6.13;1.67;;;;;;;14.06;36.15;95554.22;5050213;28;20055;-30
2023/04/04 03:41:58;;;;;;;8.73;1.65;;;;;;;14.20;35.69;95550.72;5050518;28;20461;-31
2023/04/04 03:44:24;;;;;;;4.90;1.83;;;;;;;14.16;35.51;95555.63;5047046;28;20048;-31
2023/04/04 03:46:50;;;;;;;7.00;1.80;;;;;;;14.07;35.60;95548.28;5044669;28;20483;-31
2023/04/04 03:49:16;;;;;;;6.30;1.58;;;;;;;14.00;35.84;95560.31;5049149;28;20013;-31
2023/04/04 03:51:41;;;;;;;9.85;2.25;;;;;;;13.92;35.57;95563.88;5050106;28;20021;-31
2023/04/04 03:54:07;;;;;;;5.50;1.80;;;;;;;14.08;35.61;95562.69;5048952;28;20021;-30
2023/04/04 03:56:32;;;;;;;4.55;1.30;;;;;;;13.85;35.99;95567.72;5048557;28;20029;-31
2023/04/04 03:58:58;;;;;;;5.03;1.58;;;;;;;13.86;35.25;95569.22;5050410;28;20013;-30
2023/04/04 04:01:23;;;;;;;5.43;1.92;;;;;;;13.98;35.43;95562.75;5049249;28;20408;-31
2023/04/04 04:03:49;;;;;;;8.45;2.00;;;;;;;13.99;34.77;95568.94;5042177;28;20064;-32
2023/04/04 04:06:14;;;;;;;7.10;1.48;;;;;;;13.91;35.39;95567.81;5048830;28;20017;-30
2023/04/04 04:08:40;;;;;;;5.18;1.50;;;;;;;14.02;35.09;95578.94;5041738;28;20033;-32
2023/04/04 04:11:05;;;;;;;5.35;1.35;;;;;;;13.95;35.05;95582.78;5048783;28;20510;-31
2023/04/04 04:13:31;;;;;;;8.38;1.60;;;;;;;13.88;35.18;95602.22;5050204;28;20079;-30
2023/04/04 04:15:57;;;;;;;6.30;1.73;;;;;;;13.85;35.30;95591.50;5048577;28;20051;-30
2023/04/04 04:18:23;;;;;;;3.65;2.00;;;;;;;13.70;35.12;95596.19;5049955;28;20025;-29
2023/04/04 04:20:48;;;;;;;7.80;1.80;;;;;;;14.01;35.05;95596.50;5048385;28;20431;-29
2023/04/04 04:23:14;;;;;;;6.63;1.80;;;;;;;13.72;34.76;95594.50;5035793;28;20345;-29
2023/04/04 04:25:39;;;;;;;7.78;1.80;;;;;;;13.89;34.79;95601.00;5049867;28;20525;-29
2023/04/04 04:28:05;;;;;;;6.32;1.85;;;;;;;13.91;34.58;95606.75;5041203;28;20013;-29
2023/04/04 04:30:30;;;;;;;5.43;1.63;;;;;;;13.65;35.06;95611.19;5047105;28;20029;-29
2023/04/04 04:32:56;;;;;;;6.97;1.42;;;;;;;13.61;35.47;95618.78;5050275;28;20362;-29
2023/04/04 04:35:21;;;;;;;7.30;1.67;;;;;;;13.78;34.82;95602.75;5053283;28;20032;-31
2023/04/04 04:37:47;;;;;;;6.47;1.60;;;;;;;13.86;34.93;95610.09;5053604;28;20110;-29
2023/04/04 04:40:13;;;;;;;8.23;1.95;;;;;;;13.77;35.03;95609.44;5052352;28;20035;-31
2023/04/04 04:42:47;;;;;;;8.07;1.83;;;;;;;13.66;34.93;95615.44;5053756;28;20044;-29
2023/04/04 04:45:12;;;;;;;5.88;1.90;;;;;;;14.03;34.41;95613.91;5045362;28;20035;-28
2023/04/04 04:47:38;;;;;;;11.82;2.33;;;;;;;13.57;35.00;95624.44;5038974;28;20021;-29
2023/04/04 04:50:04;;;;;;;5.88;1.70;;;;;;;13.67;34.93;95625.09;5053643;28;20071;-29
2023/04/04 04:52:30;;;;;;;5.70;1.40;;;;;;;13.61;35.21;95622.25;5052108;28;20037;-29
2023/04/04 04:54:56;;;;;;;8.10;2.08;;;;;;;13.90;35.32;95620.84;5053326;28;20024;-28
2023/04/04 04:57:22;;;;;;;7.38;1.60;;;;;;;13.91;34.77;95620.38;5052510;28;20534;-29
2023/04/04 04:59:48;;;;;;;5.28;1.63;;;;;;;13.56;35.15;95622.91;5042033;28;20536;-28
2023/04/04 05:02:15;;;;;;;9.18;1.67;;;;;;;13.61;35.32;95619.53;5053125;28;20516;-31
2023/04/04 05:04:43;;;;;;;3.55;1.60;;;;;;;13.75;35.14;95612.63;5051493;28;20024;-29
2023/04/04 05:07:11;;;;;;;8.88;1.65;;;;;;;13.73;35.15;95606.88;5053456;28;20017;-29
2023/04/04 05:09:36;;;;;;;6.35;1.58;;;;;;;13.59;35.40;95623.97;5044368;28;20090;-29
2023/04/04 05:12:02;;;;;;;7.22;1.70;;;;;;;13.72;35.97;95627.19;5053178;28;20020;-28
2023/04/04 05:14:28;;;;;;;10.40;1.65;;;;;;;13.58;35.66;95639.56;5053218;28;20024;-28
2023/04/04 05:16:53;;;;;;;3.92;1.67;;;;;;;13.76;35.39;95632.44;5051612;28;20021;-30
2023/04/04 05:19:18;;;;;;;7.85;1.77;;;;;;;13.73;35.41;95638.81;5052780;28;20025;-30
2023/04/04 05:21:44;;;;;;;6.68;1.80;;;;;;;13.80;35.18;95635.75;5052509;28;20032;-29
2023/04/04 05:24:13;;;;;;;8.43;2.17;;;;;;;13.77;35.18;95631.22;5045271;28;20033;-30
2023/04/04 05:26:38;;;;;;;4.78;1.63;;;;;;;13.68;35.27;95621.16;5053231;28;20036;-29
2023/04/04 05:29:04;;;;;;;7.13;1.88;;;;;;;13.39;35.20;95629.22;5051420;28;20025;-29
2023/04/04 05:31:29;;;;;;;4.07;1.58;;;;;;;13.59;35.49;95630.16;5052782;28;20056;-29
2023/04/04 05:33:55;;;;;;;7.13;2.28;;;;;;;13.54;35.33;95649.09;5052434;28;20023;-29
2023/04/04 05:36:21;;;;;;;4.75;1.70;;;;;;;13.49;35.66;95641.56;5051629;28;20029;-29
2023/04/04 05:38:46;;;;;;;10.18;2.10;;;;;;;13.66;35.05;95645.41;5052983;28;20476;-29
2023/04/04 05:41:12;;;;;;;7.43;2.58;;;;;;;13.70;34.87;95640.53;5051284;28;20017;-28
2023/04/04 05:43:37;;;;;;;4.45;1.90;;;;;;;13.71;35.20;95644.75;5051659;28;20024;-29
2023/04/04 05:46:03;;;;;;;8.70;1.83;;;;;;;13.51;35.63;95639.88;5045267;28;20465;-28
2023/04/04 05:48:28;;;;;;;6.28;1.75;;;;;;;13.48;35.62;95635.34;5051178;28;20048;-29
2023/04/04 05:50:54;;;;;;;5.78;1.73;;;;;;;13.58;35.04;95633.34;5051096;28;20083;-29
2023/04/04 05:53:19;;;;;;;7.78;2.00;;;;;;;13.63;35.43;95635.41;5051391;28;20029;-29
2023/04/04 05:55:45;;;;;;;5.68;1.33;;;;;;;13.71;35.46;95631.13;5052346;28;20388;-29
2023/04/04 05:58:10;;;;;;;14.57;2.40;;;;;;;13.68;35.16;95642.22;5052471;28;20032;-28
2023/04/04 06:00:36;;;;;;;5.25;1.80;;;;;;;13.65;34.96;95639.19;5050696;28;20041;-29
2023/04/04 06:03:01;;;;;;;6.25;1.60;;;;;;;13.80;34.70;95652.09;5052359;28;20097;-29
2023/04/04 06:05:27;;;;;;;7.95;1.67;;;;;;;13.61;35.18;95646.03;5051469;28;20032;-28
2023/04/04 06:07:52;;;;;;;6.40;1.65;;;;;;;13.68;35.47;95653.09;5048806;28;20017;-29
2023/04/04 06:10:18;;;;;;;5.80;1.80;;;;;;;13.94;34.64;95663.06;5047324;28;20385;-30
2023/04/04 06:12:44;;;;;;;2.83;1.25;;;;;;;13.56;34.97;95657.56;5050312;28;20025;-31
2023/04/04 06:15:10;;;;;;;8.32;1.73;;;;;;;13.64;35.03;95664.94;5052396;28;20400;-30
2023/04/04 06:17:35;;;;;;;6.50;1.60;;;;;;;13.60;35.15;95660.84;5052003;28;20447;-30
2023/04/04 06:20:00;;;;;;;3.95;1.55;;;;;;;13.80;34.67;95666.50;5050438;28;20033;-28
2023/04/04 06:22:26;;;;;;;6.53;1.40;;;;;;;13.81;34.65;95665.28;5051837;28;20053;-31
2023/04/04 06:24:52;;;;;;;4.18;1.42;;;;;;;13.64;34.83;95664.16;5050848;28;20481;-32
2023/04/04 06:27:17;;;;;;;6.47;1.50;;;;;;;13.76;34.88;95655.00;5044388;28;20075;-31
2023/04/04 06:29:43;;;;;;;7.57;1.92;;;;;;;13.71;34.69;95655.66;5051644;28;20387;-32
2023/04/04 06:32:08;;;;;;;3.50;1.77;;;;;;;13.59;34.88;95662.09;5047597;28;20067;-31
2023/04/04 06:34:34;;;;;;;4.75;1.65;;;;;;;13.81;35.09;95662.53;5051577;28;20500;-31
2023/04/04 06:36:59;;;;;;;7.43;2.03;;;;;;;13.68;35.25;95664.00;5050779;28;20392;-31
2023/04/04 06:39:26;;;;;;;5.00;1.83;;;;;;;13.73;35.05;95671.53;5044730;28;20013;-32
2023/04/04 06:41:51;;;;;;;4.90;1.70;;;;;;;13.75;34.92;95664.41;5051325;28;20020;-31
2023/04/04 06:44:17;;;;;;;4.72;1.58;;;;;;;13.59;35.50;95675.72;5049589;28;20017;-31
2023/04/04 06:46:43;;;;;;;9.20;1.63;;;;;;;13.79;35.20;95692.22;5044848;28;20374;-31
2023/04/04 06:49:08;;;;;;;9.00;1.50;;;;;;;13.92;35.03;95678.38;5051406;28;20086;-30
2023/04/04 06:51:34;;;;;;;3.22;1.40;;;;;;;13.73;34.88;95677.72;5049670;28;20132;-31
2023/04/04 06:54:00;;;;;;;5.43;1.77;;;;;;;13.71;35.35;95684.88;5050942;28;20027;-31
2023/04/04 06:56:26;;;;;;;8.35;1.60;;;;;;;13.76;35.20;95692.41;5048385;28;20472;-31
2023/04/04 06:58:53;;;;;;;3.80;1.20;;;;;;;13.90;35.46;95695.19;5051184;28;20128;-31
2023/04/04 07:01:18;;;;;;;9.02;1.77;;;;;;;13.85;34.99;95695.81;5050858;28;20128;-31
2023/04/04 07:03:43;;;;;;;7.72;1.58;;;;;;;13.79;35.35;95694.97;5040021;28;20034;-31
2023/04/04 07:06:10;;;;;;;8.57;1.58;;;;;;;13.79;35.81;95683.31;5051021;28;20040;-31
2023/04/04 07:08:35;;;;;;;8.88;2.15;;;;;;;13.96;35.31;95684.41;5042354;28;20014;-31
2023/04/04 07:11:01;;;;;;;3.55;1.35;;;;;;;13.82;35.57;95696.75;5050734;28;20550;-29
2023/04/04 07:13:27;;;;;;;5.55;1.58;;;;;;;13.98;35.61;95681.94;5042619;28;20021;-32
2023/04/04 07:15:52;;;;;;;5.47;1.33;;;;;;;13.94;35.36;95693.03;5047961;28;20059;-31
2023/04/04 07:18:18;;;;;;;5.70;1.58;;;;;;;13.95;35.44;95705.44;5050924;28;20024;-33
2023/04/04 07:20:47;;;;;;;6.50;1.90;;;;;;;13.87;35.48;95708.97;5050153;28;20090;-31
2023/04/04 07:23:14;;;;;;;8.15;2.25;;;;;;;14.01;35.43;95700.84;5050279;28;20043;-31
2023/04/04 07:25:39;;;;;;;8.27;1.58;;;;;;;13.90;35.20;95703.34;5051084;28;20039;-31
2023/04/04 07:28:05;;;;;;;8.38;1.80;;;;;;;14.03;35.59;95706.59;5042007;28;20032;-33
2023/04/04 07:30:32;;;;;;;6.93;2.08;;;;;;;14.00;35.73;95717.66;5050870;28;20078;-31
2023/04/04 07:33:01;;;;;;;6.72;1.55;;;;;;;14.05;35.80;95719.00;5043025;28;20078;-31
2023/04/04 07:35:27;;;;;;;15.35;2.67;;;;;;;14.05;35.40;95714.31;5036300;28;20082;-31
2023/04/04 07:37:53;;;;;;;6.60;1.73;;;;;;;14.14;35.71;95708.78;5050336;28;20491;-31
2023/04/04 07:40:18;;;;;;;4.20;1.30;;;;;;;14.22;35.52;95722.78;5048874;28;20131;-32
2023/04/04 07:42:44;;;;;;;6.72;1.50;;;;;;;14.40;35.41;95708.28;5050404;28;20020;-31
2023/04/04 07:45:11;;;;;;;5.90;1.63;;;;;;;14.27;35.62;95717.47;5042100;28;20074;-30
2023/04/04 07:47:36;;;;;;;8.05;1.60;;;;;;;14.23;35.82;95718.84;5049983;28;20025;-29
2023/04/04 07:50:03;;;;;;;6.10;1.85;;;;;;;14.21;35.75;95711.16;5044941;28;20032;-29
2023/04/04 07:52:28;;;;;;;4.50;1.70;;;;;;;14.07;36.23;95720.06;5032739;28;20492;-29
2023/04/04 07:54:54;;;;;;;5.68;1.80;;;;;;;14.37;36.01;95723.59;5046529;28;20021;-31
2023/04/04 07:57:20;;;;;;;10.80;1.90;;;;;;;14.33;36.06;95723.03;5045361;28;20036;-29
2023/04/04 07:59:46;;;;;;;6.13;2.42;;;;;;;14.34;35.64;95738.19;5049388;28;20030;-29
2023/04/04 08:02:11;;;;;;;10.55;3.47;;;;;;;14.40;35.81;95728.13;5050161;28;20053;-29
2023/04/04 08:04:37;;;;;;;7.47;2.38;;;;;;;14.49;35.78;95736.25;5048738;28;20044;-29
2023/04/04 08:07:03;;;;;;;7.30;2.10;;;;;;;14.44;35.85;95736.16;5049763;28;20013;-30
2023/04/04 08:09:33;;;;;;;5.18;1.73;;;;;;;14.59;35.36;95732.19;5042629;28;20055;-30
2023/04/04 08:12:00;;;;;;;3.90;1.88;;;;;;;14.33;35.77;95723.03;5049137;28;20014;-29
2023/04/04 08:14:26;;;;;;;6.70;1.98;;;;;;;14.56;35.50;95746.81;5049957;28;20027;-31
2023/04/04 08:16:52;;;;;;;4.60;1.60;;;;;;;14.44;35.45;95738.88;5048508;28;20021;-29
2023/04/04 08:19:18;;;;;;;5.53;1.58;;;;;;;14.65;35.14;95730.34;5050317;28;20051;-29
2023/04/04 08:21:44;;;;;;;6.68;1.98;;;;;;;14.50;36.08;95742.44;5047725;28;20056;-29
2023/04/04 08:24:12;;;;;;;4.68;1.45;;;;;;;14.50;35.32;95745.94;5042402;28;20028;-29
2023/04/04 08:26:38;;;;;;;5.95;1.58;;;;;;;14.75;35.21;95736.44;5043958;28;20087;-29
2023/04/04 08:29:03;;;;;;;3.88;1.70;;;;;;;14.76;35.61;95750.84;5047353;28;20024;-29
2023/04/04 08:31:29;;;;;;;6.32;1.55;;;;;;;14.60;35.75;95754.78;5046292;28;20051;-29
2023/04/04 08:33:55;;;;;;;6.80;1.60;;;;;;;14.74;35.19;95746.63;5041768;28;20030;-29
2023/04/04 08:36:21;;;;;;;7.30;1.75;;;;;;;14.79;35.45;95747.94;5040477;28;20021;-29
2023/04/04 08:38:47;;;;;;;5.45;1.95;;;;;;;14.76;35.19;95761.78;5049813;28;20380;-29
2023/04/04 08:41:16;;;;;;;4.82;1.42;;;;;;;14.94;35.01;95764.34;5046922;28;20104;-29
2023/04/04 08:43:45;;;;;;;4.47;1.40;;;;;;;14.95;35.24;95760.38;5050023;28;20122;-29
2023/04/04 08:46:12;;;;;;;5.32;1.55;;;;;;;14.93;35.62;95762.81;5041279;28;20021;-30
2023/04/04 08:48:40;;;;;;;5.15;2.25;;;;;;;14.86;35.40;95763.94;5049490;28;20103;-29
2023/04/04 08:51:09;;;;;;;2.88;1.48;;;;;;;14.90;35.28;95761.03;5042827;28;20603;-29
2023/04/04 08:53:36;;;;;;;6.93;1.60;;;;;;;15.02;34.67;95765.47;5047773;28;20037;-29
2023/04/04 08:56:01;;;;;;;3.03;1.40;;;;;;;15.03;34.79;95751.34;5049235;28;20023;-29
2023/04/04 08:58:27;;;;;;;6.85;2.15;;;;;;;15.08;34.98;95763.59;5048280;28;20134;-29
2023/04/04 09:00:53;;;;;;;9.15;2.47;;;;;;;15.05;34.84;95767.25;5048828;28;20393;-31
2023/04/04 09:03:26;;;;;;;6.35;2.00;;;;;;;15.15;34.94;95774.13;5049829;28;20032;-29
2023/04/04 09:05:54;;;;;;;4.47;1.67;;;;;;;15.04;35.09;95757.56;5048590;28;20017;-29
2023/04/04 09:08:20;;;;;;;4.70;1.48;;;;;;;15.14;34.71;95772.59;5043569;28;20049;-29
2023/04/04 09:10:46;;;;;;;3.90;1.33;;;;;;;15.07;35.37;95767.53;5046622;28;20036;-29
2023/04/04 09:13:12;;;;;;;5.53;1.52;;;;;;;15.16;34.76;95770.16;5043435;28;20017;-29
2023/04/04 09:15:41;;;;;;;5.72;1.98;;;;;;;15.08;34.77;95777.25;5043219;28;20051;-29
2023/04/04 09:18:06;;;;;;;5.95;2.08;;;;;;;15.12;34.80;95775.06;5051821;28;20018;-30
2023/04/04 09:20:36;;;;;;;7.47;3.20;;;;;;;15.33;34.40;95787.56;5053586;28;20054;-29
2023/04/04 09:23:10;;;;;;;7.53;2.10;;;;;;;15.22;34.97;95778.44;5051417;28;20075;-29
2023/04/04 09:25:36;;;;;;;5.18;1.60;;;;;;;15.41;34.36;95785.22;5052963;28;20036;-29
2023/04/04 09:28:04;;;;;;;7.63;1.95;;;;;;;15.44;34.46;95782.28;5044010;28;20024;-29
2023/04/04 09:30:34;;;;;;;5.03;1.52;;;;;;;15.37;34.35;95785.41;5052802;28;20021;-29
2023/04/04 09:33:02;;;;;;;4.50;2.13;;;;;;;15.32;34.99;95783.34;5051721;28;20124;-29
2023/04/04 09:35:28;;;;;;;5.97;1.75;;;;;;;15.39;35.07;95787.66;5038724;28;20460;-28
2023/04/04 09:37:53;;;;;;;7.95;1.90;;;;;;;15.46;35.07;95788.00;5052841;28;20021;-29
2023/04/04 09:40:19;;;;;;;3.33;1.50;;;;;;;15.32;34.58;95801.72;5051043;28;20035;-29
2023/04/04 09:42:44;;;;;;;5.20;1.50;;;;;;;15.31;35.28;95802.94;5052538;28;20016;-29
2023/04/04 09:45:10;;;;;;;4.07;1.33;;;;;;;15.57;34.76;95803.88;5044552;28;20543;-29
2023/04/04 09:47:41;;;;;;;7.72;1.90;;;;;;;15.41;34.38;95807.81;5052237;28;20020;-31
2023/04/04 09:50:07;;;;;;;6.88;1.73;;;;;;;15.45;34.45;95802.19;5046546;28;20056;-29
2023/04/04 09:52:36;;;;;;;7.55;1.58;;;;;;;15.50;34.61;95812.44;5049191;28;20060;-29
2023/04/04 09:55:03;;;;;;;10.32;1.80;;;;;;;15.60;34.51;95796.69;5052643;28;20078;-31
2023/04/04 09:57:30;;;;;;;4.32;1.45;;;;;;;15.49;34.67;95799.22;5050984;28;20032;-31
2023/04/04 10:00:02;;;;;;;5.60;1.50;;;;;;;15.66;34.34;95808.47;5052626;28;20128;-29
2023/04/04 10:02:29;;;;;;;3.58;1.40;;;;;;;15.54;34.76;95799.31;5051557;28;20043;-30
2023/04/04 10:04:56;;;;;;;4.28;1.55;;;;;;;15.60;35.00;95807.63;5052174;28;20495;-29
2023/04/04 10:07:29;;;;;;;3.35;1.48;;;;;;;15.66;35.09;95805.75;5052229;28;20028;-29
2023/04/04 10:09:55;;;;;;;3.78;1.25;;;;;;;15.73;34.52;95808.06;5043409;28;20021;-30
2023/04/04 10:12:24;;;;;;;5.90;1.40;;;;;;;15.70;34.75;95801.56;5052086;28;20061;-31
2023/04/04 10:15:00;;;;;;;4.47;1.25;;;;;;;15.73;34.46;95794.41;5050678;28;20021;-29
2023/04/04 10:17:39;;;;;;;6.93;1.60;;;;;;;15.74;34.88;95799.41;5044697;28;20099;-31
2023/04/04 10:20:07;;;;;;;4.80;1.20;;;;;;;15.85;35.64;95798.03;5051106;28;20109;-29
2023/04/04 10:22:35;;;;;;;4.65;1.20;;;;;;;15.94;35.03;95797.94;5052384;28;20021;-29
2023/04/04 10:25:02;;;;;;;3.45;1.20;;;;;;;15.99;34.86;95800.00;5050511;28;20111;-31
2023/04/04 10:27:27;;;;;;;3.97;1.65;;;;;;;15.96;34.84;95812.63;5044705;28;20075;-31
2023/04/04 10:29:53;;;;;;;5.13;1.40;;;;;;;15.94;34.14;95808.88;5050364;28;20025;-30
2023/04/04 10:32:28;;;;;;;2.55;1.27;;;;;;;16.07;34.35;95796.38;5050682;28;20021;-30
2023/04/04 10:35:04;;;;;;;4.97;1.45;;;;;;;15.99;33.66;95813.66;5044691;28;20029;-29
2023/04/04 10:37:48;;;;;;;6.07;1.40;;;;;;;15.93;34.82;95818.31;5037554;28;20485;-29
2023/04/04 10:40:16;;;;;;;4.75;1.60;;;;;;;15.91;34.02;95807.84;5049878;28;20031;-29
2023/04/04 10:42:46;;;;;;;4.30;2.08;;;;;;;15.99;34.22;95805.47;5051982;28;20404;-29
2023/04/04 10:45:14;;;;;;;4.60;2.10;;;;;;;15.94;33.81;95801.44;5050267;28;20112;-28
2023/04/04 10:47:40;;;;;;;3.67;1.48;;;;;;;16.04;34.34;95800.06;5037261;28;20048;-31
2023/04/04 10:50:09;;;;;;;5.95;1.67;;;;;;;16.08;34.05;95808.06;5045057;28;20017;-29
2023/04/04 10:52:37;;;;;;;3.97;1.77;;;;;;;16.31;34.12;95820.06;5049469;28;20021;-29
2023/04/04 10:55:05;;;;;;;6.65;2.08;;;;;;;16.00;33.88;95813.19;5051430;28;20027;-29
2023/04/04 10:57:32;;;;;;;6.15;1.95;;;;;;;16.19;34.21;95812.94;5049609;28;20033;-29
2023/04/04 11:00:07;;;;;;;5.07;1.88;;;;;;;16.08;34.00;95808.06;5049924;28;20108;-29
2023/04/04 11:02:51;;;;;;;8.25;2.00;;;;;;;16.20;34.27;95817.16;5049935;28;20037;-30
2023/04/04 11:05:16;;;;;;;5.95;1.80;;;;;;;16.14;34.22;95812.38;5050742;28;20031;-28
2023/04/04 11:07:45;;;;;;;2.95;1.40;;;;;;;16.16;35.12;95804.47;5047728;28;20107;-30
2023/04/04 11:10:22;;;;;;;5.25;1.88;;;;;;;16.24;33.64;95810.25;5044941;28;20028;-28
2023/04/04 11:12:53;;;;;;;5.30;2.05;;;;;;;16.34;33.57;95811.63;5049435;28;20053;-29
2023/04/04 11:15:23;;;;;;;4.85;1.83;;;;;;;16.24;33.57;95812.25;5050929;28;20465;-29
2023/04/04 11:17:58;;;;;;;4.47;1.50;;;;;;;16.12;33.23;95801.16;5048898;28;20029;-29
2023/04/04 11:20:35;;;;;;;6.75;1.85;;;;;;;16.22;33.21;95806.50;5050975;28;20048;-31
2023/04/04 11:23:02;;;;;;;6.78;1.60;;;;;;;16.30;33.62;95813.09;5048821;28;20047;-29
2023/04/04 11:25:36;;;;;;;5.57;1.80;;;;;;;16.14;33.69;95809.66;5050962;28;20024;-31
2023/04/04 11:28:13;;;;;;;4.82;2.00;;;;;;;16.38;33.49;95814.19;5041044;28;20017;-28
2023/04/04 11:30:47;;;;;;;5.55;2.10;;;;;;;16.26;33.24;95818.00;5050741;28;20556;-29
2023/04/04 11:33:24;;;;;;;4.97;1.65;;;;;;;16.39;33.81;95816.44;5048930;28;20091;-28